Time;durP1;ratioP1;P1;durP2;ratioP2;P2;SDS_P1;SDS_P2;PMS_P1;PMS_P2;Temp;Humidity;BMP_temperature;BMP_pressure;BME280_temperature;BME280_humidity;BME280_pressure;Samples;Min_cycle;Max_cycle;Signal;HPM_P1;HPM_P2
2021/12/07 00:00:57;;;;;;;19.42;8.15;;;;;;;-0.85;85.22;93246.56;4838860;29;20049;-57
2021/12/07 00:03:24;;;;;;;15.48;6.95;;;;;;;-0.97;84.62;93238.66;4838164;29;20102;-59
2021/12/07 00:05:51;;;;;;;18.10;7.88;;;;;;;-0.99;84.73;93232.84;4839097;29;20061;-59
2021/12/07 00:08:18;;;;;;;17.17;7.80;;;;;;;-0.95;85.15;93233.69;4838591;29;20058;-62
2021/12/07 00:10:45;;;;;;;18.05;8.57;;;;;;;-0.96;85.82;93232.16;4839145;29;20046;-59
2021/12/07 00:13:12;;;;;;;17.73;8.55;;;;;;;-1.10;86.30;93226.53;4838750;29;20069;-59
2021/12/07 00:15:39;;;;;;;21.55;9.85;;;;;;;-1.05;86.51;93216.22;4837493;29;20305;-59
2021/12/07 00:18:06;;;;;;;20.02;9.13;;;;;;;-1.10;86.97;93207.66;4838522;29;20052;-60
2021/12/07 00:20:33;;;;;;;19.37;8.43;;;;;;;-1.09;87.09;93218.06;4839459;29;20054;-59
2021/12/07 00:23:04;;;;;;;25.15;9.70;;;;;;;-1.01;87.45;93224.34;4813150;29;20125;-59
2021/12/07 00:25:31;;;;;;;34.58;13.02;;;;;;;-1.00;87.18;93225.91;4839267;29;20049;-62
2021/12/07 00:27:58;;;;;;;25.45;9.75;;;;;;;-1.15;87.75;93230.25;4838463;29;20053;-61
2021/12/07 00:30:31;;;;;;;31.27;11.43;;;;;;;-1.18;88.24;93222.16;4841843;29;20054;-59
2021/12/07 00:35:39;;;;;;;27.75;10.82;;;;;;;-1.15;88.91;93230.25;4842788;29;20052;-60
2021/12/07 00:38:11;;;;;;;30.40;11.07;;;;;;;-1.19;89.23;93229.44;4842425;29;20062;-60
2021/12/07 00:40:38;;;;;;;26.75;10.00;;;;;;;-1.22;90.29;93222.84;4842761;29;20054;-61
2021/12/07 00:43:05;;;;;;;20.63;9.18;;;;;;;-1.38;90.93;93230.25;4842302;29;20080;-60
2021/12/07 00:45:35;;;;;;;23.37;10.23;;;;;;;-1.36;91.53;93222.59;4842141;29;20050;-60
2021/12/07 00:48:04;;;;;;;23.33;10.43;;;;;;;-1.40;91.34;93229.84;4841871;29;20056;-60
2021/12/07 00:50:33;;;;;;;30.10;10.90;;;;;;;-1.28;91.83;93234.28;4842678;29;20509;-61
2021/12/07 00:53:02;;;;;;;30.67;11.38;;;;;;;-1.29;91.24;93232.72;4840614;29;20556;-60
2021/12/07 00:55:32;;;;;;;28.58;12.00;;;;;;;-1.26;90.25;93224.69;4842472;29;20061;-60
2021/12/07 00:58:00;;;;;;;23.13;10.27;;;;;;;-1.18;90.37;93222.91;4840312;29;20088;-60
2021/12/07 01:00:30;;;;;;;25.95;10.48;;;;;;;-1.13;90.55;93236.06;4842219;29;20642;-60
2021/12/07 01:02:58;;;;;;;26.45;10.93;;;;;;;-1.14;89.97;93233.75;4841571;29;20050;-58
2021/12/07 01:05:31;;;;;;;21.10;9.60;;;;;;;-1.15;89.80;93226.81;4842019;29;20054;-62
2021/12/07 01:08:16;;;;;;;21.48;10.18;;;;;;;-1.21;90.72;93235.19;4841228;29;20057;-61
2021/12/07 01:24:42;;;;;;;17.07;7.63;;;;;;;-1.32;91.07;93255.75;4790552;29;21723;-60
2021/12/07 01:27:11;;;;;;;18.70;8.35;;;;;;;-1.27;91.34;93258.16;4812401;29;20060;-60
2021/12/07 01:29:40;;;;;;;15.85;7.43;;;;;;;-1.12;90.61;93264.56;4840673;29;20050;-60
2021/12/07 02:01:35;;;;;;;9.40;4.40;;;;;;;-1.26;92.48;93248.94;4840155;29;20719;-60
2021/12/07 02:04:03;;;;;;;12.47;5.60;;;;;;;-1.04;92.18;93268.94;4824448;29;20522;-60
2021/12/07 02:06:30;;;;;;;11.75;4.90;;;;;;;-1.01;91.17;93252.06;4840857;29;20048;-60
2021/12/07 02:08:57;;;;;;;14.65;5.97;;;;;;;-1.03;90.98;93254.34;4836548;29;20179;-59
2021/12/07 02:11:23;;;;;;;10.55;4.43;;;;;;;-0.87;90.84;93256.13;4833196;29;20116;-60
2021/12/07 02:16:19;;;;;;;10.77;4.70;;;;;;;-0.79;90.08;93263.19;4840601;29;20054;-60
2021/12/07 02:18:46;;;;;;;13.63;5.15;;;;;;;-0.86;89.96;93277.34;4840960;29;20039;-60
2021/12/07 02:21:17;;;;;;;10.98;4.80;;;;;;;-0.82;90.14;93278.16;4840216;29;20058;-60
2021/12/07 02:23:43;;;;;;;10.27;4.65;;;;;;;-0.73;89.96;93277.91;4839596;29;20042;-60
2021/12/07 02:26:10;;;;;;;9.13;4.70;;;;;;;-0.73;90.40;93280.63;4838851;29;20054;-60
2021/12/07 02:28:39;;;;;;;10.43;4.93;;;;;;;-0.71;89.82;93285.66;4840563;29;20053;-60
2021/12/07 02:31:09;;;;;;;9.65;4.28;;;;;;;-0.64;89.34;93281.16;4840318;29;20064;-60
2021/12/07 02:33:37;;;;;;;10.38;4.90;;;;;;;-0.70;89.66;93279.13;4840788;29;20053;-60
2021/12/07 02:36:05;;;;;;;13.05;5.53;;;;;;;-0.86;90.30;93287.34;4840436;29;20060;-61
2021/12/07 02:38:32;;;;;;;12.43;5.72;;;;;;;-0.79;90.36;93287.44;4828726;29;20054;-60
2021/12/07 02:40:59;;;;;;;6.03;3.30;;;;;;;-0.71;90.18;93296.44;4839491;29;20049;-60
2021/12/07 02:43:26;;;;;;;8.60;3.65;;;;;;;-0.70;90.09;93289.91;4840711;29;20062;-60
2021/12/07 02:45:53;;;;;;;11.27;4.70;;;;;;;-0.64;90.11;93297.34;4840268;29;20061;-60
2021/12/07 02:48:21;;;;;;;9.70;4.57;;;;;;;-0.58;89.49;93299.72;4839952;29;20117;-60
2021/12/07 02:50:50;;;;;;;9.07;4.60;;;;;;;-0.59;90.04;93296.25;4840363;29;20045;-60
2021/12/07 02:53:22;;;;;;;5.70;3.20;;;;;;;-0.46;89.63;93300.31;4839334;29;20064;-60
2021/12/07 02:55:50;;;;;;;4.22;2.00;;;;;;;-0.38;89.45;93306.63;4840047;29;20053;-60
2021/12/07 02:58:17;;;;;;;3.03;1.40;;;;;;;-0.46;89.95;93310.34;4839619;29;20057;-60
2021/12/07 03:00:54;;;;;;;5.78;2.17;;;;;;;-0.53;90.38;93300.19;4840273;29;20098;-60
2021/12/07 03:03:22;;;;;;;5.03;2.50;;;;;;;-0.41;90.78;93313.47;4820104;29;20457;-60
2021/12/07 03:06:00;;;;;;;5.97;2.53;;;;;;;-0.46;90.37;93310.34;4828655;29;20155;-60
2021/12/07 03:28:00;;;;;;;6.38;2.60;;;;;;;-0.13;89.28;93323.16;4822263;29;20047;-60
2021/12/07 03:30:27;;;;;;;6.03;2.20;;;;;;;-0.15;88.68;93328.16;4839027;29;20450;-60
2021/12/07 03:32:54;;;;;;;8.27;2.77;;;;;;;-0.07;88.70;93326.34;4839666;29;20156;-60
2021/12/07 03:35:21;;;;;;;9.48;5.45;;;;;;;-0.04;88.49;93339.09;4839294;29;20049;-61
2021/12/07 03:37:48;;;;;;;6.22;2.33;;;;;;;-0.17;87.99;93343.91;4839726;29;20038;-61
2021/12/07 03:40:15;;;;;;;4.13;1.80;;;;;;;-0.04;88.33;93349.88;4839358;29;20549;-61
2021/12/07 03:42:42;;;;;;;3.72;1.85;;;;;;;-0.12;87.85;93345.50;4838392;29;20046;-61
2021/12/07 03:45:10;;;;;;;7.60;2.30;;;;;;;-0.07;87.63;93347.91;4839080;29;20042;-61
2021/12/07 03:47:36;;;;;;;4.88;1.95;;;;;;;-0.11;87.71;93353.25;4839310;29;20121;-61
2021/12/07 03:50:06;;;;;;;4.93;2.70;;;;;;;-0.15;88.22;93348.94;4839074;29;20076;-61
2021/12/07 03:52:33;;;;;;;4.53;1.88;;;;;;;-0.07;87.64;93362.16;4839566;29;20444;-61
2021/12/07 03:55:00;;;;;;;3.85;2.00;;;;;;;-0.16;88.13;93353.56;4838798;29;20075;-59
2021/12/07 03:57:27;;;;;;;3.10;1.57;;;;;;;-0.16;88.08;93350.88;4839198;29;20052;-60
2021/12/07 03:59:54;;;;;;;3.78;1.60;;;;;;;-0.13;88.21;93360.16;4838318;29;20052;-61
2021/12/07 04:02:21;;;;;;;4.55;2.00;;;;;;;-0.34;88.69;93363.25;4838820;29;20050;-61
2021/12/07 04:04:57;;;;;;;3.85;1.70;;;;;;;-0.32;88.74;93369.06;4839292;29;20049;-61
2021/12/07 04:07:24;;;;;;;5.05;1.90;;;;;;;-0.35;88.82;93372.50;4833911;29;20046;-61
2021/12/07 04:09:52;;;;;;;3.60;2.03;;;;;;;-0.32;88.17;93367.19;4837908;29;20152;-61
2021/12/07 04:12:19;;;;;;;5.57;2.35;;;;;;;-0.30;88.38;93372.19;4838800;29;20060;-61
2021/12/07 04:14:46;;;;;;;4.57;2.20;;;;;;;-0.44;89.38;93364.66;4839162;29;20042;-61
2021/12/07 04:17:12;;;;;;;3.75;2.00;;;;;;;-0.33;89.06;93375.63;4828955;29;20054;-61
2021/12/07 04:19:39;;;;;;;5.55;1.98;;;;;;;-0.24;87.88;93371.53;4836007;29;20054;-61
2021/12/07 04:22:06;;;;;;;5.07;2.20;;;;;;;-0.28;88.17;93386.09;4838828;29;20056;-60
2021/12/07 04:24:33;;;;;;;4.32;2.00;;;;;;;-0.25;87.15;93369.19;4839299;29;20049;-60
2021/12/07 04:26:59;;;;;;;4.00;1.80;;;;;;;-0.25;87.18;93390.78;4838497;29;20050;-60
2021/12/07 04:29:26;;;;;;;2.95;1.50;;;;;;;-0.21;86.64;93386.22;4839140;29;20042;-61
2021/12/07 04:31:53;;;;;;;4.65;2.00;;;;;;;-0.13;86.21;93389.81;4838757;29;20046;-61
2021/12/07 04:34:20;;;;;;;4.10;1.60;;;;;;;-0.12;86.53;93396.75;4838749;29;20167;-60
2021/12/07 04:36:47;;;;;;;3.33;1.35;;;;;;;-0.15;85.79;93389.41;4838997;29;20042;-61
2021/12/07 04:39:14;;;;;;;6.03;1.90;;;;;;;-0.18;85.74;93384.72;4838472;29;20066;-61
2021/12/07 04:41:43;;;;;;;4.05;1.90;;;;;;;-0.27;85.80;93385.72;4825008;29;20046;-61
2021/12/07 04:44:10;;;;;;;4.28;2.00;;;;;;;-0.31;85.54;93386.81;4830083;29;20137;-61
2021/12/07 04:46:48;;;;;;;4.00;1.50;;;;;;;-0.32;85.72;93390.63;4831928;29;20052;-61
2021/12/07 05:00:04;;;;;;;6.60;2.20;;;;;;;-0.45;85.80;93390.03;4838398;29;20068;-60
2021/12/07 05:02:31;;;;;;;5.95;2.20;;;;;;;-0.49;86.24;93392.66;4838904;29;20056;-61
2021/12/07 05:04:58;;;;;;;4.75;2.58;;;;;;;-0.54;86.55;93398.38;4837960;29;20042;-60
2021/12/07 05:07:33;;;;;;;8.85;3.22;;;;;;;-0.52;86.34;93406.88;4837320;29;20046;-61
2021/12/07 05:12:38;;;;;;;4.73;2.00;;;;;;;-0.47;85.54;93414.66;4837652;29;20149;-61
2021/12/07 05:15:18;;;;;;;4.65;1.30;;;;;;;-0.48;85.62;93415.81;4838987;29;20054;-61
2021/12/07 05:39:39;;;;;;;10.53;2.50;;;;;;;-0.19;84.60;93443.25;4840716;29;20081;-60
2021/12/07 05:42:06;;;;;;;5.82;2.22;;;;;;;-0.17;84.35;93442.91;4839465;29;20064;-61
2021/12/07 05:44:33;;;;;;;4.72;1.85;;;;;;;-0.12;83.81;93453.38;4841466;29;20053;-61
2021/12/07 05:47:03;;;;;;;5.43;1.83;;;;;;;-0.09;83.82;93441.91;4839766;29;20058;-61
2021/12/07 05:49:30;;;;;;;4.05;2.13;;;;;;;-0.25;84.22;93442.78;4841339;29;20060;-61
2021/12/07 05:51:57;;;;;;;4.50;1.83;;;;;;;-0.27;84.22;93436.19;4840179;29;20060;-61
2021/12/07 05:54:24;;;;;;;10.15;3.33;;;;;;;-0.39;84.21;93439.84;4840227;29;20698;-61
2021/12/07 05:56:50;;;;;;;4.60;2.10;;;;;;;-0.39;83.80;93447.16;4839807;29;20046;-61
2021/12/07 05:59:17;;;;;;;5.50;1.50;;;;;;;-0.35;83.73;93456.06;4840965;29;20053;-61
2021/12/07 06:01:44;;;;;;;3.60;1.60;;;;;;;-0.26;82.92;93452.03;4840817;29;20068;-61
2021/12/07 06:04:11;;;;;;;7.83;2.67;;;;;;;-0.28;83.28;93448.91;4840872;29;20061;-61
2021/12/07 06:06:39;;;;;;;5.53;1.83;;;;;;;-0.17;81.83;93449.09;4840632;29;20056;-61
2021/12/07 06:09:06;;;;;;;10.65;3.50;;;;;;;-0.13;81.46;93463.41;4840241;29;20060;-60
2021/12/07 06:11:33;;;;;;;6.60;2.72;;;;;;;-0.14;81.92;93461.88;4840460;29;20046;-61
2021/12/07 06:14:00;;;;;;;9.43;3.03;;;;;;;-0.06;82.22;93474.34;4840445;29;20049;-61
2021/12/07 06:16:30;;;;;;;9.87;2.70;;;;;;;-0.02;82.48;93475.16;4840921;29;20045;-61
2021/12/07 06:18:58;;;;;;;4.38;1.80;;;;;;;-0.05;82.40;93475.88;4840609;29;20125;-59
2021/12/07 06:21:26;;;;;;;6.50;2.53;;;;;;;0.04;81.96;93469.47;4840935;29;20042;-61
2021/12/07 06:23:53;;;;;;;5.68;2.03;;;;;;;0.03;82.12;93484.09;4840898;29;20065;-61
2021/12/07 06:26:20;;;;;;;4.75;2.47;;;;;;;-0.08;83.26;93479.31;4853133;29;20058;-61
2021/12/07 06:28:47;;;;;;;7.53;2.33;;;;;;;-0.18;83.67;93485.28;4840346;29;20050;-61
2021/12/07 06:31:14;;;;;;;5.80;2.20;;;;;;;-0.12;83.88;93489.25;4840179;29;20060;-61
2021/12/07 06:33:41;;;;;;;5.47;2.95;;;;;;;-0.22;83.94;93471.75;4836583;29;20054;-61
2021/12/07 06:36:08;;;;;;;6.10;2.95;;;;;;;-0.17;83.87;93477.97;4834477;29;20049;-61
2021/12/07 06:38:35;;;;;;;8.65;3.30;;;;;;;-0.18;83.82;93479.09;4825003;29;20046;-61
2021/12/07 06:41:03;;;;;;;7.73;2.67;;;;;;;-0.29;83.87;93476.22;4824737;29;20104;-60
2021/12/07 06:43:31;;;;;;;7.80;3.17;;;;;;;-0.26;83.56;93494.41;4839058;29;20042;-61
2021/12/07 06:45:59;;;;;;;8.13;3.78;;;;;;;-0.45;84.13;93487.09;4839721;29;20054;-60
2021/12/07 06:48:26;;;;;;;10.48;5.20;;;;;;;-0.61;84.71;93484.47;4839106;29;20053;-60
2021/12/07 06:50:52;;;;;;;10.10;4.22;;;;;;;-0.62;84.63;93491.00;4840325;29;20056;-61
2021/12/07 06:53:19;;;;;;;12.63;4.13;;;;;;;-0.66;85.03;93488.25;4839659;29;20049;-61
2021/12/07 06:55:46;;;;;;;6.15;2.50;;;;;;;-0.89;84.90;93503.53;4840286;29;20037;-60
2021/12/07 06:58:13;;;;;;;11.45;4.63;;;;;;;-0.87;85.35;93518.19;4839343;29;20062;-61
2021/12/07 07:00:40;;;;;;;17.77;6.93;;;;;;;-0.89;85.13;93514.31;4840225;29;20077;-61
2021/12/07 07:03:07;;;;;;;12.35;5.15;;;;;;;-0.90;85.36;93518.91;4839650;29;20495;-61
2021/12/07 07:05:34;;;;;;;6.30;2.90;;;;;;;-0.98;85.37;93516.44;4839829;29;20049;-60
2021/12/07 07:08:02;;;;;;;10.10;4.68;;;;;;;-0.88;85.72;93524.72;4839576;29;20045;-60
2021/12/07 07:10:29;;;;;;;17.83;7.63;;;;;;;-0.89;85.28;93535.84;4838354;29;20056;-60
2021/12/07 07:12:56;;;;;;;10.77;5.10;;;;;;;-0.78;85.03;93536.88;4840183;29;20427;-60
2021/12/07 07:15:23;;;;;;;6.60;2.50;;;;;;;-0.78;84.87;93530.72;4837823;29;20692;-60
2021/12/07 07:17:49;;;;;;;6.97;2.90;;;;;;;-0.56;84.00;93527.31;4839979;29;20121;-60
2021/12/07 07:20:17;;;;;;;6.18;2.58;;;;;;;-0.38;82.32;93534.97;4838101;29;20121;-60
2021/12/07 07:22:44;;;;;;;7.25;2.70;;;;;;;-0.23;82.00;93534.09;4839666;29;20100;-60
2021/12/07 07:25:12;;;;;;;5.97;2.47;;;;;;;-0.33;81.21;93534.69;4839293;29;20110;-60
2021/12/07 07:27:40;;;;;;;8.63;3.13;;;;;;;-0.14;80.10;93542.78;4835247;29;20050;-60
2021/12/07 07:30:09;;;;;;;6.93;2.60;;;;;;;0.01;79.24;93537.63;4824836;29;20062;-61
2021/12/07 07:32:36;;;;;;;9.85;2.90;;;;;;;0.18;77.75;93547.94;4787765;29;20057;-61
2021/12/07 07:35:05;;;;;;;13.75;5.10;;;;;;;0.26;77.44;93546.94;4815866;29;20065;-61
2021/12/07 07:37:32;;;;;;;15.60;7.15;;;;;;;0.17;77.57;93549.88;4820012;29;20046;-60
2021/12/07 07:39:59;;;;;;;9.38;3.65;;;;;;;0.52;77.48;93543.53;4832099;29;20050;-61
2021/12/07 07:42:31;;;;;;;8.03;2.70;;;;;;;0.72;76.60;93556.97;4839743;29;20052;-61
2021/12/07 07:44:57;;;;;;;4.78;1.98;;;;;;;0.55;75.01;93550.13;4839083;29;20118;-59
2021/12/07 07:47:24;;;;;;;6.25;1.90;;;;;;;0.76;74.52;93557.78;4839023;29;20052;-62
2021/12/07 07:49:51;;;;;;;5.82;1.98;;;;;;;0.91;74.20;93559.59;4821835;29;20065;-61
2021/12/07 07:52:18;;;;;;;9.73;2.13;;;;;;;1.06;73.85;93562.50;4821918;29;20408;-62
2021/12/07 07:54:44;;;;;;;6.33;2.20;;;;;;;1.10;73.39;93557.94;4837468;29;20348;-62
2021/12/07 07:57:11;;;;;;;4.20;1.88;;;;;;;0.78;72.97;93567.09;4838095;29;20531;-62
2021/12/07 07:59:39;;;;;;;5.00;2.30;;;;;;;0.63;74.54;93569.94;4838292;29;20711;-62
2021/12/07 08:02:07;;;;;;;5.78;2.20;;;;;;;1.97;72.25;93580.31;4838363;29;20050;-62
2021/12/07 08:04:34;;;;;;;6.80;2.40;;;;;;;3.93;62.04;93560.56;4839214;29;20045;-63
2021/12/07 08:07:01;;;;;;;6.80;1.70;;;;;;;5.54;59.45;93554.50;4838345;29;20066;-63
2021/12/07 08:09:28;;;;;;;7.43;1.90;;;;;;;7.22;54.25;93548.59;4839203;29;20050;-61
2021/12/07 08:11:55;;;;;;;4.57;1.80;;;;;;;9.15;48.16;93546.28;4839289;29;20102;-61
2021/12/07 08:14:22;;;;;;;4.38;1.70;;;;;;;10.37;43.89;93551.56;4838670;29;20052;-61
2021/12/07 08:16:49;;;;;;;4.30;1.60;;;;;;;9.88;45.49;93548.56;4839007;29;20068;-61
2021/12/07 08:19:16;;;;;;;5.17;2.20;;;;;;;11.31;43.09;93569.53;4838458;29;20117;-63
2021/12/07 08:21:43;;;;;;;4.38;1.98;;;;;;;11.91;41.00;93561.00;4839078;29;20057;-61
2021/12/07 08:24:10;;;;;;;4.78;1.77;;;;;;;11.79;41.06;93557.75;4838496;29;20050;-61
2021/12/07 08:26:36;;;;;;;4.45;1.73;;;;;;;12.11;39.61;93566.38;4838873;29;20038;-62
2021/12/07 08:29:03;;;;;;;3.17;1.60;;;;;;;13.09;37.13;93567.91;4837070;29;20101;-63
2021/12/07 08:31:30;;;;;;;4.00;1.50;;;;;;;11.13;40.43;93578.97;4839025;29;20046;-63
2021/12/07 08:33:58;;;;;;;3.60;1.50;;;;;;;11.87;39.15;93565.78;4838383;29;20487;-61
2021/12/07 08:36:24;;;;;;;3.67;1.42;;;;;;;12.99;37.57;93561.53;4837756;29;20038;-63
2021/12/07 08:38:51;;;;;;;5.07;1.63;;;;;;;11.65;38.73;93562.81;4838777;29;20053;-63
2021/12/07 08:41:18;;;;;;;5.90;2.17;;;;;;;11.44;39.31;93573.13;4838411;29;20049;-62
2021/12/07 08:43:50;;;;;;;4.63;2.00;;;;;;;11.71;39.21;93577.56;4839081;29;20046;-62
2021/12/07 08:46:17;;;;;;;5.13;1.98;;;;;;;13.66;36.11;93562.59;4836814;29;20083;-63
2021/12/07 08:48:44;;;;;;;4.82;1.80;;;;;;;12.96;37.10;93556.91;4837565;29;20046;-63
2021/12/07 08:51:13;;;;;;;4.38;1.95;;;;;;;12.29;36.99;93558.41;4834357;29;20065;-63
2021/12/07 08:53:49;;;;;;;3.92;1.75;;;;;;;12.06;37.88;93562.19;4822580;29;20046;-63
2021/12/07 08:59:49;;;;;;;4.72;1.80;;;;;;;11.00;40.37;93561.59;4842072;29;20553;-61
2021/12/07 09:01:51;;;;;;;5.03;2.20;;;;;;;11.48;37.79;93564.81;4841598;29;20484;-63
2021/12/07 09:04:20;;;;;;;4.68;2.05;;;;;;;10.34;41.16;93563.38;4841823;29;20118;-65
2021/12/07 09:06:48;;;;;;;5.18;2.20;;;;;;;11.99;38.51;93563.16;4841867;29;20050;-62
2021/12/07 09:09:16;;;;;;;6.03;2.17;;;;;;;13.27;35.91;93570.88;4841470;29;20081;-62
2021/12/07 09:11:44;;;;;;;9.25;3.63;;;;;;;12.75;37.04;93570.06;4842190;29;20379;-62
2021/12/07 09:14:14;;;;;;;6.45;2.13;;;;;;;12.82;36.34;93569.13;4840406;29;20057;-62
2021/12/07 09:16:45;;;;;;;5.50;1.95;;;;;;;12.69;36.26;93569.06;4841689;29;20461;-62
2021/12/07 09:19:13;;;;;;;5.13;2.30;;;;;;;15.01;33.41;93569.34;4841667;29;20053;-62
2021/12/07 09:21:40;;;;;;;4.97;2.17;;;;;;;16.05;31.28;93579.88;4842038;29;20053;-62
2021/12/07 09:24:08;;;;;;;4.85;2.00;;;;;;;15.56;31.37;93583.41;4841118;29;20061;-62
2021/12/07 09:26:35;;;;;;;4.57;1.80;;;;;;;12.53;37.32;93597.44;4841638;29;20054;-62
2021/12/07 09:29:03;;;;;;;2.78;1.25;;;;;;;9.48;41.09;93603.28;4841176;29;20058;-61
2021/12/07 09:31:30;;;;;;;4.65;1.60;;;;;;;8.98;43.40;93593.88;4841553;29;20164;-62
2021/12/07 09:33:57;;;;;;;3.13;1.20;;;;;;;10.60;40.60;93591.84;4841659;29;20045;-62
2021/12/07 09:36:25;;;;;;;2.90;1.10;;;;;;;11.69;38.25;93593.72;4840781;29;20440;-62
2021/12/07 09:38:55;;;;;;;3.70;1.13;;;;;;;12.26;36.34;93588.78;4841307;29;20102;-61
2021/12/07 09:41:22;;;;;;;3.85;1.75;;;;;;;11.83;36.95;93589.84;4839973;29;20045;-61
2021/12/07 09:43:50;;;;;;;4.05;1.40;;;;;;;10.54;40.00;93585.31;4840501;29;20054;-61
2021/12/07 09:46:17;;;;;;;3.47;1.23;;;;;;;12.51;36.63;93588.84;4824375;29;20053;-61
2021/12/07 09:48:45;;;;;;;3.17;1.30;;;;;;;14.27;34.15;93571.63;4840075;29;20042;-63
2021/12/07 09:51:16;;;;;;;3.97;1.35;;;;;;;13.57;35.11;93575.09;4823235;29;20058;-62
2021/12/07 09:53:45;;;;;;;3.53;1.45;;;;;;;14.23;32.66;93554.41;4824866;29;20134;-62
2021/12/07 09:56:14;;;;;;;4.05;1.90;;;;;;;15.78;30.68;93555.69;4819767;29;20058;-62
2021/12/07 09:58:43;;;;;;;3.17;1.30;;;;;;;14.95;31.77;93547.06;4823247;29;20042;-62
2021/12/07 10:01:11;;;;;;;4.20;2.08;;;;;;;16.89;28.61;93550.16;4822543;29;20081;-62
2021/12/07 10:03:39;;;;;;;3.90;1.67;;;;;;;17.58;27.76;93543.75;4823303;29;20047;-63
2021/12/07 10:06:07;;;;;;;3.67;2.20;;;;;;;18.14;27.78;93544.22;4831448;29;20053;-63
2021/12/07 10:08:34;;;;;;;3.60;1.50;;;;;;;17.25;27.45;93538.19;4841640;29;20069;-63
2021/12/07 10:11:05;;;;;;;3.13;1.00;;;;;;;16.72;28.42;93531.09;4839501;29;20057;-62
2021/12/07 10:13:32;;;;;;;3.20;1.20;;;;;;;17.90;27.30;93532.34;4816115;29;20042;-63
2021/12/07 10:16:03;;;;;;;3.47;1.20;;;;;;;17.74;26.26;93527.94;4808295;29;20106;-62
2021/12/07 10:18:33;;;;;;;3.22;1.20;;;;;;;18.74;25.67;93522.88;4826967;29;20102;-63
2021/12/07 10:21:14;;;;;;;4.90;1.20;;;;;;;15.27;29.15;93526.50;4805492;29;20078;-63
2021/12/07 10:23:45;;;;;;;3.53;1.90;;;;;;;15.93;28.82;93542.03;4803932;29;20061;-62
2021/12/07 10:26:15;;;;;;;4.95;1.70;;;;;;;16.45;28.60;93531.13;4804208;29;20055;-63
2021/12/07 10:28:44;;;;;;;3.65;1.38;;;;;;;17.72;26.56;93524.88;4805044;29;20054;-63
2021/12/07 10:31:11;;;;;;;3.28;1.35;;;;;;;16.89;27.31;93528.75;4804264;29;20054;-63
2021/12/07 10:33:44;;;;;;;4.32;1.73;;;;;;;16.72;27.18;93527.53;4804977;29;20057;-63
2021/12/07 10:36:13;;;;;;;3.23;1.23;;;;;;;16.31;28.01;93530.50;4804459;29;20054;-63
2021/12/07 10:38:42;;;;;;;4.78;1.63;;;;;;;15.65;28.46;93538.41;4804583;29;20051;-63
2021/12/07 10:41:11;;;;;;;3.17;1.05;;;;;;;17.12;27.67;93537.63;4804115;29;20070;-63
2021/12/07 10:43:39;;;;;;;4.43;1.10;;;;;;;15.86;28.25;93543.09;4804797;29;20067;-63
2021/12/07 10:46:24;;;;;;;3.92;1.20;;;;;;;18.19;25.79;93534.47;4803890;29;20504;-63
2021/12/07 10:49:15;;;;;;;6.73;1.30;;;;;;;14.77;28.81;93531.19;4804611;29;20430;-62
2021/12/07 10:52:05;;;;;;;3.35;1.05;;;;;;;13.76;30.67;93526.44;4803527;29;20416;-62
2021/12/07 10:54:47;;;;;;;6.65;1.52;;;;;;;13.09;32.77;93526.59;4803581;29;20579;-63
2021/12/07 10:57:22;;;;;;;5.13;1.70;;;;;;;14.49;30.54;93525.44;4803868;29;20065;-64
2021/12/07 10:59:53;;;;;;;5.15;1.85;;;;;;;13.69;30.31;93532.16;4804573;29;20057;-63
2021/12/07 11:02:22;;;;;;;4.87;2.53;;;;;;;14.25;30.70;93524.38;4803854;29;20062;-63
2021/12/07 11:04:51;;;;;;;4.45;1.50;;;;;;;14.55;29.74;93531.16;4804175;29;20043;-63
2021/12/07 11:07:27;;;;;;;11.50;2.55;;;;;;;15.29;28.62;93532.34;4839706;29;20068;-64
2021/12/07 11:10:06;;;;;;;6.72;1.38;;;;;;;15.50;28.16;93522.41;4840548;29;20050;-63
2021/12/07 11:12:47;;;;;;;4.30;1.60;;;;;;;15.47;28.27;93517.00;4839206;29;20176;-63
2021/12/07 11:15:22;;;;;;;8.63;3.07;;;;;;;12.24;32.89;93508.66;4840269;29;20049;-62
2021/12/07 11:17:50;;;;;;;5.43;1.48;;;;;;;7.89;40.80;93519.84;4840857;29;20072;-62
2021/12/07 11:20:17;;;;;;;12.20;1.60;;;;;;;10.36;37.89;93508.88;4853365;29;21808;-62
2021/12/07 11:22:50;;;;;;;9.13;1.50;;;;;;;12.33;33.40;93495.78;4839757;29;20472;-63
2021/12/07 11:31:29;;;;;;;7.85;2.80;;;;;;;10.95;35.45;93486.00;4839681;29;20474;-61
2021/12/07 11:34:18;;;;;;;14.82;5.35;;;;;;;11.58;36.19;93484.06;4840257;29;20488;-62
2021/12/07 11:36:47;;;;;;;4.35;1.90;;;;;;;10.35;36.69;93477.16;4839247;29;20664;-62
2021/12/07 11:39:18;;;;;;;7.95;2.10;;;;;;;13.84;31.79;93466.25;4839418;29;20050;-63
2021/12/07 11:41:47;;;;;;;5.67;1.20;;;;;;;15.41;29.51;93463.53;4838832;29;20064;-63
2021/12/07 11:44:14;;;;;;;8.40;1.33;;;;;;;10.70;36.11;93469.34;4853505;29;20483;-62
2021/12/07 11:46:48;;;;;;;8.43;1.30;;;;;;;8.38;41.37;93470.41;4839857;29;20048;-62
2021/12/07 11:49:19;;;;;;;6.10;1.30;;;;;;;8.06;42.33;93466.16;4839655;29;20058;-62
2021/12/07 11:51:49;;;;;;;4.72;1.00;;;;;;;8.05;42.52;93464.63;4839796;29;20049;-62
2021/12/07 11:54:18;;;;;;;5.63;1.10;;;;;;;7.89;42.74;93464.44;4839137;29;20050;-62
2021/12/07 11:56:51;;;;;;;6.05;1.33;;;;;;;6.55;45.49;93461.44;4839525;29;20045;-61
2021/12/07 11:59:18;;;;;;;3.70;1.10;;;;;;;7.17;44.43;93455.06;4839553;29;20058;-62
2021/12/07 12:01:47;;;;;;;5.65;1.10;;;;;;;7.04;45.07;93456.72;4839889;29;20050;-61
2021/12/07 12:04:16;;;;;;;7.25;1.52;;;;;;;10.30;39.14;93447.50;4839222;29;20060;-63
2021/12/07 12:06:46;;;;;;;6.60;1.03;;;;;;;11.87;35.92;93442.84;4825999;29;20066;-63
2021/12/07 12:09:14;;;;;;;7.25;1.33;;;;;;;12.45;34.45;93433.72;4821179;29;20239;-62
2021/12/07 12:12:03;;;;;;;5.28;1.23;;;;;;;12.61;32.96;93437.59;4821509;29;20050;-62
2021/12/07 12:14:56;;;;;;;4.55;1.02;;;;;;;11.97;34.59;93439.06;4820676;29;20164;-62
2021/12/07 12:17:34;;;;;;;5.82;1.40;;;;;;;7.16;44.16;93452.72;4818285;29;20050;-62
2021/12/07 12:20:00;;;;;;;6.43;1.90;;;;;;;5.04;49.81;93447.72;4820990;29;20072;-61
2021/12/07 12:22:52;;;;;;;5.90;2.08;;;;;;;4.77;51.91;93443.47;4821249;29;20053;-61
2021/12/07 12:25:26;;;;;;;6.28;1.40;;;;;;;4.55;53.04;93437.28;4820798;29;20062;-62
2021/12/07 12:27:55;;;;;;;6.60;1.50;;;;;;;4.27;53.36;93434.56;4824547;29;20054;-62
2021/12/07 12:30:22;;;;;;;5.18;1.30;;;;;;;3.94;54.25;93431.81;4824314;29;20423;-62
2021/12/07 12:32:59;;;;;;;5.83;1.33;;;;;;;3.73;54.73;93424.38;4824953;29;20464;-62
2021/12/07 12:35:29;;;;;;;5.40;1.70;;;;;;;4.12;53.63;93401.16;4823973;29;20641;-61
2021/12/07 12:37:56;;;;;;;7.20;1.77;;;;;;;3.98;54.47;93389.16;4824580;29;20046;-62
2021/12/07 12:40:30;;;;;;;7.20;2.70;;;;;;;3.24;56.97;93390.53;4807561;29;20144;-61
2021/12/07 12:43:01;;;;;;;16.42;6.13;;;;;;;3.32;59.12;93385.88;4824782;29;20048;-61
2021/12/07 12:45:35;;;;;;;8.30;4.00;;;;;;;3.48;60.54;93375.50;4823525;29;20638;-61
2021/12/07 12:48:08;;;;;;;5.88;2.53;;;;;;;3.67;61.06;93373.59;4824062;29;20065;-61
2021/12/07 12:50:49;;;;;;;6.53;2.92;;;;;;;4.22;59.35;93377.91;4824466;29;20117;-61
2021/12/07 12:53:20;;;;;;;7.55;3.13;;;;;;;4.01;59.87;93371.31;4823760;29;20064;-62
2021/12/07 12:55:57;;;;;;;11.20;3.97;;;;;;;3.59;61.72;93368.13;4824091;29;20046;-62
2021/12/07 12:58:30;;;;;;;7.13;2.43;;;;;;;3.39;62.50;93362.28;4823339;29;20326;-62
2021/12/07 13:01:19;;;;;;;7.13;2.08;;;;;;;3.30;63.96;93366.50;4822599;29;20526;-59
2021/12/07 13:03:54;;;;;;;7.47;3.72;;;;;;;3.11;63.67;93354.81;4824443;29;20383;-62
2021/12/07 13:06:43;;;;;;;5.70;2.70;;;;;;;2.98;64.10;93357.09;4813098;29;20055;-61
2021/12/07 13:09:18;;;;;;;4.45;1.92;;;;;;;2.95;65.17;93365.97;4805791;29;20050;-61
2021/12/07 13:12:02;;;;;;;8.10;2.43;;;;;;;3.03;64.39;93360.59;4806118;29;20049;-62
2021/12/07 13:14:31;;;;;;;7.20;2.20;;;;;;;3.04;65.09;93365.66;4805236;29;20686;-62
2021/12/07 13:17:07;;;;;;;8.98;2.10;;;;;;;2.80;65.74;93362.44;4805670;29;20059;-58
2021/12/07 13:20:02;;;;;;;5.82;2.00;;;;;;;2.90;65.18;93362.88;4806060;29;20496;-61
2021/12/07 13:22:44;;;;;;;5.15;1.85;;;;;;;2.82;64.50;93345.00;4805209;29;20676;-61
2021/12/07 13:25:25;;;;;;;5.10;1.80;;;;;;;2.87;64.87;93353.56;4805376;29;20051;-61
2021/12/07 13:28:29;;;;;;;11.00;3.58;;;;;;;3.31;64.26;93343.66;4804718;29;20055;-62
2021/12/07 13:31:17;;;;;;;6.97;2.20;;;;;;;3.37;64.07;93336.69;4804177;29;20578;-61
2021/12/07 13:33:55;;;;;;;5.03;1.83;;;;;;;2.94;64.59;93342.00;4805765;29;20051;-62
2021/12/07 13:36:39;;;;;;;6.35;1.90;;;;;;;2.57;65.49;93324.75;4804526;29;20042;-62
2021/12/07 13:39:12;;;;;;;8.30;2.63;;;;;;;2.54;66.46;93330.19;4805136;29;20138;-61